createdAt,value
2023-10-20T00:01:10.833Z,99205.94
2023-10-20T00:03:38.847Z,99212.84
2023-10-20T00:06:06.833Z,99209.97
2023-10-20T00:08:34.472Z,99212.19
2023-10-20T00:11:05.072Z,99211.81
2023-10-20T00:13:34.310Z,99209.88
2023-10-20T00:16:02.066Z,99207.88
2023-10-20T00:18:31.874Z,99198.53
2023-10-20T00:20:59.922Z,99189.97
2023-10-20T00:23:27.585Z,99194.38
2023-10-20T00:25:55.205Z,99192.38
2023-10-20T00:28:22.895Z,99190.53
2023-10-20T00:30:50.461Z,99204.63
2023-10-20T00:33:18.760Z,99207.16
2023-10-20T00:35:47.709Z,99201.41
2023-10-20T00:38:15.308Z,99195.47
2023-10-20T00:40:47.765Z,99195.28
2023-10-20T00:43:15.697Z,99203.00
2023-10-20T00:45:45.928Z,99212.34
2023-10-20T00:48:14.120Z,99208.56
2023-10-20T00:50:41.921Z,99204.50
2023-10-20T00:53:12.326Z,99190.63
2023-10-20T00:55:41.208Z,99183.25
2023-10-20T00:58:09.515Z,99182.16
2023-10-20T01:00:37.089Z,99171.09
2023-10-20T01:03:06.053Z,99176.28
2023-10-20T01:05:34.043Z,99170.06
2023-10-20T01:08:01.740Z,99165.41
2023-10-20T01:10:30.787Z,99160.09
2023-10-20T01:12:58.354Z,99161.59
2023-10-20T01:15:26.060Z,99158.94
2023-10-20T01:17:53.797Z,99180.19
2023-10-20T01:20:21.436Z,99183.06
2023-10-20T01:22:50.594Z,99168.03
2023-10-20T01:25:19.638Z,99165.66
2023-10-20T01:27:47.204Z,99170.84
2023-10-20T01:30:14.957Z,99173.13
2023-10-20T01:32:43.656Z,99174.28
2023-10-20T01:35:11.756Z,99178.00
2023-10-20T01:37:39.412Z,99174.53
2023-10-20T01:40:09.687Z,99181.22
2023-10-20T01:42:38.651Z,99183.75
2023-10-20T01:45:07.254Z,99172.88
2023-10-20T01:47:35.933Z,99181.56
2023-10-20T01:50:03.749Z,99166.06
2023-10-20T01:52:31.744Z,99157.72
2023-10-20T01:54:59.964Z,99146.41
2023-10-20T01:57:28.202Z,99139.72
2023-10-20T01:59:57.189Z,99139.63
2023-10-20T02:02:24.936Z,99129.34
2023-10-20T02:04:52.552Z,99131.53
2023-10-20T02:07:20.162Z,99130.03
2023-10-20T02:09:47.729Z,99128.88
2023-10-20T02:12:15.645Z,99127.63
2023-10-20T02:14:43.304Z,99123.91
2023-10-20T02:17:12.360Z,99115.34
2023-10-20T02:19:40.005Z,99114.31
2023-10-20T02:22:07.566Z,99097.34
2023-10-20T02:24:35.340Z,99087.75
2023-10-20T02:27:03.036Z,99081.72
2023-10-20T02:29:31.274Z,99083.78
2023-10-20T02:31:59.027Z,99075.94
2023-10-20T02:34:28.064Z,99075.94
2023-10-20T02:36:55.614Z,99076.41
2023-10-20T02:39:23.269Z,99074.34
2023-10-20T02:41:50.883Z,99068.06
2023-10-20T02:44:18.495Z,99065.22
2023-10-20T02:46:46.103Z,99055.63
2023-10-20T02:49:13.733Z,99064.63
2023-10-20T02:51:42.696Z,99061.84
2023-10-20T02:54:11.285Z,99072.00
2023-10-20T02:56:39.477Z,99073.63
2023-10-20T02:59:07.181Z,99081.34
2023-10-20T03:01:34.940Z,99082.16
2023-10-20T03:04:02.765Z,99081.03
2023-10-20T03:06:30.425Z,99078.38
2023-10-20T03:08:59.337Z,99069.13
2023-10-20T03:11:27.021Z,99068.78
2023-10-20T03:13:54.719Z,99072.34
2023-10-20T03:16:22.489Z,99081.03
2023-10-20T03:18:50.222Z,99068.03
2023-10-20T03:21:19.280Z,99070.13
2023-10-20T03:23:46.865Z,99065.53
2023-10-20T03:26:15.893Z,99064.16
2023-10-20T03:28:44.675Z,99064.50
2023-10-20T03:31:12.505Z,99065.53
2023-10-20T03:33:40.154Z,99046.59
2023-10-20T03:36:08.030Z,99062.03
2023-10-20T03:38:35.730Z,99055.69
2023-10-20T03:41:07.706Z,99068.28
2023-10-20T03:43:37.330Z,99059.16
2023-10-20T03:46:06.340Z,99056.72
2023-10-20T03:48:36.501Z,99056.50
2023-10-20T03:51:06.607Z,99051.44
2023-10-20T03:53:42.483Z,99051.09
2023-10-20T03:56:10.759Z,99038.72
2023-10-20T03:58:39.959Z,99041.84
2023-10-20T04:01:09.018Z,99042.53
2023-10-20T04:03:36.651Z,99038.47
2023-10-20T04:06:07.412Z,99016.66
2023-10-20T04:08:35.239Z,99023.00
2023-10-20T04:11:03.313Z,99014.81
2023-10-20T04:13:33.062Z,99027.50
2023-10-20T04:16:13.109Z,99024.59
2023-10-20T04:18:41.239Z,99019.09
2023-10-20T04:21:09.005Z,99020.69
2023-10-20T04:23:37.950Z,99016.56
2023-10-20T04:26:06.027Z,99017.59
2023-10-20T04:28:38.150Z,99017.94
2023-10-20T04:31:24.926Z,99002.56
2023-10-20T04:34:10.366Z,99004.56
2023-10-20T04:36:55.880Z,98999.69
2023-10-20T04:39:41.269Z,98988.50
2023-10-20T04:42:22.796Z,98984.22
2023-10-20T04:45:00.071Z,98967.50
2023-10-20T04:47:46.479Z,98967.50
2023-10-20T04:50:40.155Z,98964.03
2023-10-20T04:53:13.632Z,98951.56
2023-10-20T04:56:07.242Z,98927.94
2023-10-20T04:58:46.786Z,98937.81
2023-10-20T05:01:22.503Z,98927.66
2023-10-20T05:03:54.616Z,98931.25
2023-10-20T05:06:23.927Z,98921.34
2023-10-20T05:08:52.783Z,98928.84
2023-10-20T05:11:20.880Z,98941.28
2023-10-20T05:13:48.556Z,98927.34
2023-10-20T05:16:16.279Z,98914.97
2023-10-20T05:18:45.713Z,98910.03
2023-10-20T05:21:14.869Z,98923.09
2023-10-20T05:23:44.989Z,98921.44
2023-10-20T05:26:12.735Z,98916.16
2023-10-20T05:28:40.346Z,98905.28
2023-10-20T05:31:08.499Z,98906.00
2023-10-20T05:33:36.074Z,98914.75
2023-10-20T05:36:05.445Z,98909.81
2023-10-20T05:38:34.469Z,98904.97
2023-10-20T05:41:02.326Z,98921.44
2023-10-20T05:43:31.264Z,98913.50
2023-10-20T05:45:58.875Z,98912.00
2023-10-20T05:48:26.643Z,98930.44
2023-10-20T05:50:58.608Z,98934.72
2023-10-20T05:53:26.458Z,98936.91
2023-10-20T05:55:55.505Z,98929.88
2023-10-20T05:58:23.464Z,98929.31
2023-10-20T06:01:02.351Z,98921.44
2023-10-20T06:03:32.044Z,98936.91
2023-10-20T06:06:01.371Z,98926.88
2023-10-20T06:08:30.695Z,98914.31
2023-10-20T06:11:07.194Z,98918.91
2023-10-20T06:13:36.698Z,98926.31
2023-10-20T06:16:11.277Z,98920.53
2023-10-20T06:18:39.965Z,98910.84
2023-10-20T06:21:08.822Z,98897.31
2023-10-20T06:23:36.537Z,98902.44
2023-10-20T06:26:05.618Z,98898.03
2023-10-20T06:28:33.139Z,98905.44
2023-10-20T06:31:01.919Z,98921.56
2023-10-20T06:33:34.075Z,98930.91
2023-10-20T06:36:11.502Z,98932.78
2023-10-20T06:38:46.305Z,98925.94
2023-10-20T06:41:15.674Z,98909.22
2023-10-20T06:43:43.319Z,98902.63
2023-10-20T06:46:11.145Z,98901.41
2023-10-20T06:48:38.999Z,98895.63
2023-10-20T06:51:06.681Z,98897.69
2023-10-20T06:53:34.326Z,98887.31
2023-10-20T06:58:38.730Z,98873.22
2023-10-20T07:01:07.343Z,98868.50
2023-10-20T07:03:35.806Z,98854.88
2023-10-20T07:06:08.176Z,98865.94
2023-10-20T07:08:36.273Z,98850.63
2023-10-20T07:11:04.980Z,98852.47
2023-10-20T07:13:33.754Z,98862.63
2023-10-20T07:16:03.032Z,98862.06
2023-10-20T07:18:30.788Z,98843.81
2023-10-20T07:20:59.072Z,98837.13
2023-10-20T07:23:27.295Z,98832.50
2023-10-20T07:25:55.113Z,98838.63
2023-10-20T07:28:22.881Z,98834.09
2023-10-20T07:30:51.501Z,98831.25
2023-10-20T07:33:20.469Z,98842.88
2023-10-20T07:35:48.690Z,98845.53
2023-10-20T07:38:16.756Z,98835.84
2023-10-20T07:40:44.349Z,98850.84
2023-10-20T07:43:12.229Z,98859.84
2023-10-20T07:45:41.587Z,98836.53
2023-10-20T07:48:11.922Z,98824.31
2023-10-20T07:50:43.322Z,98829.63
2023-10-20T07:53:12.002Z,98826.28
2023-10-20T07:55:39.606Z,98824.78
2023-10-20T07:58:10.091Z,98825.38
2023-10-20T08:00:38.085Z,98826.75
2023-10-20T08:03:06.661Z,98827.56
2023-10-20T08:05:37.002Z,98825.94
2023-10-20T08:08:07.355Z,98820.16
2023-10-20T08:10:35.189Z,98822.13
2023-10-20T08:13:03.671Z,98825.94
2023-10-20T08:15:31.621Z,98818.31
2023-10-20T08:17:59.435Z,98822.34
2023-10-20T08:20:27.119Z,98816.25
2023-10-20T08:22:54.740Z,98821.19
2023-10-20T08:25:23.732Z,98836.66
2023-10-20T08:27:51.915Z,98829.75
2023-10-20T08:30:21.325Z,98817.06
2023-10-20T08:32:49.142Z,98822.72
2023-10-20T08:35:16.948Z,98829.50
2023-10-20T08:37:44.637Z,98822.81
2023-10-20T08:40:13.398Z,98818.91
2023-10-20T08:42:43.515Z,98819.47
2023-10-20T08:45:14.155Z,98821.78
2023-10-20T08:47:42.947Z,98822.56
2023-10-20T08:50:11.398Z,98811.03
2023-10-20T08:52:40.463Z,98807.34
2023-10-20T08:55:09.308Z,98805.53
2023-10-20T08:57:36.974Z,98801.34
2023-10-20T09:00:08.447Z,98804.47
2023-10-20T09:02:39.894Z,98806.66
2023-10-20T09:05:08.424Z,98809.31
2023-10-20T09:07:36.017Z,98788.31
2023-10-20T09:10:04.054Z,98777.00
2023-10-20T09:12:33.925Z,98762.25
2023-10-20T09:15:01.589Z,98753.13
2023-10-20T09:17:35.043Z,98751.53
2023-10-20T09:20:07.556Z,98742.97
2023-10-20T09:22:35.570Z,98748.63
2023-10-20T09:25:03.698Z,98747.63
2023-10-20T09:27:31.585Z,98739.41
2023-10-20T09:30:00.294Z,98746.44
2023-10-20T09:32:28.821Z,98746.81
2023-10-20T09:34:58.941Z,98734.56
2023-10-20T09:37:31.015Z,98741.25
2023-10-20T09:40:07.430Z,98730.41
2023-10-20T09:42:45.155Z,98723.28
2023-10-20T09:45:18.248Z,98744.25
2023-10-20T09:47:53.136Z,98732.94
2023-10-20T09:50:24.629Z,98746.22
2023-10-20T09:52:54.583Z,98740.09
2023-10-20T09:55:23.110Z,98724.19
2023-10-20T09:57:51.358Z,98740.66
2023-10-20T10:00:31.767Z,98728.56
2023-10-20T10:03:00.480Z,98731.69
2023-10-20T10:05:32.066Z,98738.81
2023-10-20T10:08:08.719Z,98730.19
2023-10-20T10:10:37.020Z,98748.63
2023-10-20T10:13:07.021Z,98753.94
2023-10-20T10:15:39.836Z,98752.19
2023-10-20T10:18:10.723Z,98750.59
2023-10-20T10:20:47.031Z,98754.28
2023-10-20T10:23:15.811Z,98742.38
2023-10-20T10:25:45.006Z,98745.84
2023-10-20T10:28:14.953Z,98732.59
2023-10-20T10:30:46.632Z,98739.38
2023-10-20T10:33:14.906Z,98729.84
2023-10-20T10:35:44.013Z,98753.47
2023-10-20T10:38:20.623Z,98735.94
2023-10-20T10:40:49.507Z,98755.09
2023-10-20T10:43:20.399Z,98753.94
2023-10-20T10:45:54.772Z,98745.03
2023-10-20T10:48:26.989Z,98750.34
2023-10-20T10:50:56.071Z,98744.81
2023-10-20T10:53:23.870Z,98761.09
2023-10-20T10:55:51.589Z,98745.75
2023-10-20T10:58:19.980Z,98739.16
2023-10-20T11:00:48.180Z,98744.22
2023-10-20T11:03:16.431Z,98744.47
2023-10-20T11:05:44.962Z,98744.69
2023-10-20T11:08:16.139Z,98732.25
2023-10-20T11:10:48.198Z,98753.81
2023-10-20T11:13:17.448Z,98755.56
2023-10-20T11:15:45.577Z,98741.91
2023-10-20T11:18:13.390Z,98743.75
2023-10-20T11:20:44.690Z,98733.88
2023-10-20T11:23:15.415Z,98739.16
2023-10-20T11:25:43.745Z,98735.50
2023-10-20T11:28:11.592Z,98742.38
2023-10-20T11:30:43.243Z,98736.63
2023-10-20T11:33:15.695Z,98740.09
2023-10-20T11:35:44.203Z,98737.09
2023-10-20T11:38:11.809Z,98730.03
2023-10-20T11:40:42.796Z,98729.22
2023-10-20T11:43:10.405Z,98719.75
2023-10-20T11:45:38.109Z,98709.72
2023-10-20T11:48:06.432Z,98707.06
2023-10-20T11:50:34.055Z,98704.41
2023-10-20T11:53:01.756Z,98708.44
2023-10-20T11:55:29.375Z,98703.16
2023-10-20T11:57:58.427Z,98697.72
2023-10-20T12:00:26.116Z,98701.72
2023-10-20T12:02:53.884Z,98691.50
2023-10-20T12:05:21.740Z,98681.78
2023-10-20T12:07:49.363Z,98677.75
2023-10-20T12:10:17.085Z,98686.75
2023-10-20T12:12:44.695Z,98674.88
2023-10-20T12:15:13.744Z,98664.00
2023-10-20T12:17:42.820Z,98673.00
2023-10-20T12:20:11.688Z,98671.41
2023-10-20T12:22:39.251Z,98657.81
2023-10-20T12:25:07.765Z,98658.78
2023-10-20T12:27:35.378Z,98646.47
2023-10-20T12:30:03.232Z,98644.41
2023-10-20T12:32:32.904Z,98646.59
2023-10-20T12:35:00.581Z,98630.41
2023-10-20T12:37:28.157Z,98624.41
2023-10-20T12:39:55.812Z,98610.78
2023-10-20T12:42:23.629Z,98614.81
2023-10-20T12:44:51.251Z,98605.72
2023-10-20T12:47:20.373Z,98598.34
2023-10-20T12:49:49.290Z,98593.97
2023-10-20T12:52:16.817Z,98580.78
2023-10-20T12:54:44.416Z,98577.09
2023-10-20T12:57:12.567Z,98570.66
2023-10-20T12:59:40.280Z,98581.25
2023-10-20T13:02:08.163Z,98566.38
2023-10-20T13:04:36.200Z,98553.44
2023-10-20T13:07:05.330Z,98540.75
2023-10-20T13:09:32.983Z,98531.38
2023-10-20T13:12:00.700Z,98523.34
2023-10-20T13:14:29.231Z,98527.03
2023-10-20T13:16:58.030Z,98517.56
2023-10-20T13:19:25.663Z,98506.47
2023-10-20T13:21:53.802Z,98490.06
2023-10-20T13:24:22.745Z,98482.66
2023-10-20T13:26:50.467Z,98473.31
2023-10-20T13:29:18.127Z,98470.44
2023-10-20T13:31:45.737Z,98465.13
2023-10-20T13:34:13.440Z,98472.34
2023-10-20T13:36:41.145Z,98459.00
2023-10-20T13:41:40.808Z,98448.63
2023-10-20T13:44:11.156Z,98455.06
2023-10-20T13:46:38.784Z,98448.72
2023-10-20T13:49:07.238Z,98430.38
2023-10-20T13:51:35.115Z,98432.78
2023-10-20T13:54:02.731Z,98432.22
2023-10-20T13:56:30.430Z,98424.56
2023-10-20T13:59:00.276Z,98423.47
2023-10-20T14:01:27.945Z,98409.38
2023-10-20T14:03:56.217Z,98415.00
2023-10-20T14:06:25.271Z,98404.31
2023-10-20T14:08:53.908Z,98412.03
2023-10-20T14:11:21.710Z,98408.81
2023-10-20T14:13:49.339Z,98410.44
2023-10-20T14:16:18.411Z,98388.38
2023-10-20T14:18:46.056Z,98375.91
2023-10-20T14:21:13.825Z,98371.66
2023-10-20T14:23:41.457Z,98373.81
2023-10-20T14:26:09.117Z,98381.78
2023-10-20T14:28:37.819Z,98386.31
2023-10-20T14:31:06.391Z,98371.16
2023-10-20T14:33:35.926Z,98372.28
2023-10-20T14:36:03.709Z,98363.94
2023-10-20T14:38:31.822Z,98363.78
2023-10-20T14:41:03.806Z,98362.16
2023-10-20T14:43:33.420Z,98366.91
2023-10-20T14:46:01.662Z,98373.25
2023-10-20T14:48:29.638Z,98369.09
2023-10-20T14:50:59.702Z,98377.06
2023-10-20T14:53:27.628Z,98377.59
2023-10-20T14:55:56.186Z,98382.09
2023-10-20T14:58:23.896Z,98375.97
2023-10-20T15:00:52.350Z,98373.09
2023-10-20T15:03:22.065Z,98373.59
2023-10-20T15:05:50.939Z,98374.41
2023-10-20T15:08:20.810Z,98384.75
2023-10-20T15:10:48.437Z,98385.63
2023-10-20T15:13:17.282Z,98386.44
2023-10-20T15:15:44.962Z,98386.44
2023-10-20T15:18:12.681Z,98371.81
2023-10-20T15:20:42.138Z,98383.72
2023-10-20T15:23:17.243Z,98363.78
2023-10-20T15:25:48.237Z,98365.94
2023-10-20T15:28:16.078Z,98358.69
2023-10-20T15:30:43.613Z,98343.16
2023-10-20T15:33:11.349Z,98361.59
2023-10-20T15:35:40.708Z,98341.97
2023-10-20T15:38:11.259Z,98336.91
2023-10-20T15:40:39.185Z,98325.47
2023-10-20T15:43:08.251Z,98327.66
2023-10-20T15:45:36.050Z,98317.59
2023-10-20T15:48:04.888Z,98323.38
2023-10-20T15:50:33.575Z,98315.41
2023-10-20T15:53:01.588Z,98320.19
2023-10-20T15:55:29.293Z,98311.19
2023-10-20T15:57:56.885Z,98318.34
2023-10-20T16:00:26.187Z,98324.00
2023-10-20T16:02:53.879Z,98325.53
2023-10-20T16:05:21.525Z,98326.63
2023-10-20T16:07:49.074Z,98332.97
2023-10-20T16:10:16.954Z,98322.88
2023-10-20T16:12:44.626Z,98328.19
2023-10-20T16:15:13.780Z,98336.16
2023-10-20T16:17:42.900Z,98339.13
2023-10-20T16:20:11.922Z,98342.78
2023-10-20T16:22:39.510Z,98359.81
2023-10-20T16:25:08.317Z,98345.19
2023-10-20T16:27:35.888Z,98364.38
2023-10-20T16:30:06.203Z,98373.22
2023-10-20T16:32:35.518Z,98388.75
2023-10-20T16:35:05.152Z,98399.00
2023-10-20T16:37:32.814Z,98412.00
2023-10-20T16:40:01.370Z,98409.13
2023-10-20T16:42:29.078Z,98405.66
2023-10-20T16:44:56.725Z,98415.16
2023-10-20T16:47:25.033Z,98410.72
2023-10-20T16:49:53.013Z,98391.69
2023-10-20T16:52:21.980Z,98401.28
2023-10-20T16:54:52.364Z,98400.13
2023-10-20T16:57:20.450Z,98398.84
2023-10-20T16:59:48.150Z,98378.88
2023-10-20T17:02:16.391Z,98368.38
2023-10-20T17:04:44.020Z,98378.69
2023-10-20T17:07:11.750Z,98364.66
2023-10-20T17:09:40.744Z,98367.25
2023-10-20T17:12:08.928Z,98388.75
2023-10-20T17:14:36.562Z,98392.50
2023-10-20T17:17:04.378Z,98390.06
2023-10-20T17:19:31.963Z,98417.66
2023-10-20T17:21:59.831Z,98404.84
2023-10-20T17:24:27.864Z,98412.06
2023-10-20T17:26:56.870Z,98408.00
2023-10-20T17:29:24.418Z,98410.88
2023-10-20T17:31:52.072Z,98414.44
2023-10-20T17:34:19.829Z,98408.56
2023-10-20T17:36:47.514Z,98404.78
2023-10-20T17:39:15.471Z,98410.09
2023-10-20T17:41:43.105Z,98416.38
2023-10-20T17:44:12.038Z,98421.38
2023-10-20T17:46:39.646Z,98423.75
2023-10-20T17:49:07.231Z,98425.59
2023-10-20T17:51:36.020Z,98430.69
2023-10-20T17:54:03.762Z,98434.38
2023-10-20T17:56:31.445Z,98427.00
2023-10-20T17:58:59.384Z,98427.56
2023-10-20T18:01:28.804Z,98429.88
2023-10-20T18:03:56.594Z,98427.78
2023-10-20T18:06:24.452Z,98425.22
2023-10-20T18:08:53.079Z,98426.34
2023-10-20T18:11:21.866Z,98425.06
2023-10-20T18:13:51.877Z,98431.00
2023-10-20T18:16:22.252Z,98413.25
2023-10-20T18:18:51.687Z,98415.19
2023-10-20T18:21:20.965Z,98414.59
2023-10-20T18:23:49.197Z,98414.31
2023-10-20T18:26:17.553Z,98404.88
2023-10-20T18:28:45.268Z,98409.16
2023-10-20T18:31:14.077Z,98413.97
2023-10-20T18:33:42.283Z,98424.75
2023-10-20T18:36:12.431Z,98422.56
2023-10-20T18:38:40.111Z,98436.56
2023-10-20T18:41:14.515Z,98420.06
2023-10-20T18:43:42.193Z,98423.19
2023-10-20T18:46:10.253Z,98408.84
2023-10-20T18:48:38.056Z,98421.50
2023-10-20T18:51:06.238Z,98424.75
2023-10-20T18:53:36.544Z,98418.31
2023-10-20T18:56:05.110Z,98417.56
2023-10-20T18:58:32.863Z,98423.63
2023-10-20T19:01:00.940Z,98416.69
2023-10-20T19:03:32.569Z,98417.16
2023-10-20T19:06:00.401Z,98423.28
2023-10-20T19:08:28.143Z,98408.50
2023-10-20T19:11:00.347Z,98424.09
2023-10-20T19:13:27.940Z,98422.81
2023-10-20T19:15:57.084Z,98433.06
2023-10-20T19:18:25.139Z,98434.22
2023-10-20T19:20:57.932Z,98438.97
2023-10-20T19:23:25.673Z,98432.59
2023-10-20T19:26:01.117Z,98435.19
2023-10-20T19:28:29.905Z,98442.69
2023-10-20T19:31:01.577Z,98441.97
2023-10-20T19:33:29.702Z,98445.25
2023-10-20T19:35:57.582Z,98440.75
2023-10-20T19:38:25.860Z,98443.03
2023-10-20T19:40:53.923Z,98432.41
2023-10-20T19:43:23.312Z,98443.97
2023-10-20T19:45:51.475Z,98447.19
2023-10-20T19:48:19.241Z,98447.19
2023-10-20T19:50:47.664Z,98443.50
2023-10-20T19:53:15.348Z,98455.69
2023-10-20T19:55:43.952Z,98439.94
2023-10-20T19:58:11.963Z,98447.06
2023-10-20T20:00:41.469Z,98452.50
2023-10-20T20:03:09.658Z,98457.78
2023-10-20T20:05:37.485Z,98445.00
2023-10-20T20:08:05.524Z,98440.19
2023-10-20T20:10:33.172Z,98447.25
2023-10-20T20:13:00.765Z,98456.88
2023-10-20T20:15:28.362Z,98463.44
2023-10-20T20:17:58.218Z,98458.75
2023-10-20T20:20:26.217Z,98468.88
2023-10-20T20:22:53.795Z,98467.03
2023-10-20T20:25:21.476Z,98478.69
2023-10-20T20:27:49.107Z,98488.50
2023-10-20T20:30:16.813Z,98486.88
2023-10-20T20:32:44.545Z,98494.03
2023-10-20T20:35:13.663Z,98488.50
2023-10-20T20:37:41.244Z,98480.53
2023-10-20T20:40:09.709Z,98490.56
2023-10-20T20:42:37.339Z,98491.16
2023-10-20T20:45:06.750Z,98488.00
2023-10-20T20:47:34.523Z,98478.19
2023-10-20T20:50:02.262Z,98482.59
2023-10-20T20:52:32.876Z,98481.19
2023-10-20T20:55:01.209Z,98488.81
2023-10-20T20:57:30.203Z,98490.31
2023-10-20T20:59:57.848Z,98480.63
2023-10-20T21:02:25.655Z,98474.50
2023-10-20T21:04:53.520Z,98473.22
2023-10-20T21:07:21.083Z,98476.44
2023-10-20T21:09:50.056Z,98463.25
2023-10-20T21:12:17.709Z,98470.72
2023-10-20T21:14:45.416Z,98464.94
2023-10-20T21:17:13.151Z,98465.66
2023-10-20T21:19:40.685Z,98475.81
2023-10-20T21:22:08.273Z,98493.00
2023-10-20T21:24:35.924Z,98475.59
2023-10-20T21:27:05.362Z,98478.38
2023-10-20T21:29:33.165Z,98485.72
2023-10-20T21:32:00.806Z,98485.72
2023-10-20T21:34:28.356Z,98486.22
2023-10-20T21:36:57.117Z,98486.31
2023-10-20T21:39:27.714Z,98481.56
2023-10-20T21:41:55.575Z,98489.28
2023-10-20T21:44:24.711Z,98488.50
2023-10-20T21:46:52.369Z,98491.63
2023-10-20T21:49:19.960Z,98497.91
2023-10-20T21:51:47.579Z,98513.50
2023-10-20T21:54:15.336Z,98517.16
2023-10-20T21:56:43.111Z,98519.19
2023-10-20T21:59:10.824Z,98501.75
2023-10-20T22:01:39.813Z,98509.22
2023-10-20T22:04:07.599Z,98511.22
2023-10-20T22:06:35.666Z,98510.28
2023-10-20T22:09:03.993Z,98512.25
2023-10-20T22:11:31.596Z,98510.97
2023-10-20T22:13:59.208Z,98521.75
2023-10-20T22:16:26.868Z,98524.94
2023-10-20T22:18:55.866Z,98526.56
2023-10-20T22:21:23.857Z,98521.03
2023-10-20T22:23:51.500Z,98531.41
2023-10-20T22:26:19.295Z,98533.38
2023-10-20T22:28:46.963Z,98526.91
2023-10-20T22:31:14.630Z,98528.06
2023-10-20T22:33:42.524Z,98521.63
2023-10-20T22:36:11.551Z,98514.81
2023-10-20T22:38:39.126Z,98532.00
2023-10-20T22:41:08.095Z,98530.81
2023-10-20T22:43:35.709Z,98541.19
2023-10-20T22:46:04.713Z,98538.44
2023-10-20T22:48:32.635Z,98543.59
2023-10-20T22:51:00.316Z,98544.28
2023-10-20T22:53:29.332Z,98545.88
2023-10-20T22:55:56.914Z,98540.09
2023-10-20T22:58:24.541Z,98538.50
2023-10-20T23:00:52.186Z,98537.91
2023-10-20T23:03:19.949Z,98538.56
2023-10-20T23:05:47.753Z,98535.91
2023-10-20T23:08:15.455Z,98536.72
2023-10-20T23:10:44.445Z,98532.53
2023-10-20T23:13:12.298Z,98530.22
2023-10-20T23:15:41.777Z,98545.41
2023-10-20T23:18:09.653Z,98548.44
2023-10-20T23:20:37.733Z,98547.16
2023-10-20T23:23:05.886Z,98547.50
2023-10-20T23:25:35.347Z,98553.84
2023-10-20T23:28:05.100Z,98556.47
2023-10-20T23:30:32.686Z,98545.78
2023-10-20T23:33:00.951Z,98551.19
2023-10-20T23:35:28.671Z,98559.28
2023-10-20T23:37:56.212Z,98553.53
2023-10-20T23:40:24.025Z,98554.41
2023-10-20T23:42:51.723Z,98561.94
2023-10-20T23:45:20.795Z,98556.19
2023-10-20T23:47:48.470Z,98572.09
2023-10-20T23:50:16.504Z,98567.34
2023-10-20T23:52:44.107Z,98572.56
2023-10-20T23:55:11.730Z,98571.28
2023-10-20T23:57:39.297Z,98562.38
